<?xml version="1.0" encoding="UTF-8" standalone="no" ?>
<gpx xmlns="http://www.topografix.com/GPX/1/1" xmlns:xsi="http://www.w3.org/2001/XMLSchema-instance" xsi:schemaLocation="http://www.topografix.com/GPX/1/1 http://www.topografix.com/GPX/1/1/gpx.xsd" version="1.1" creator="VisuGPX - https://www.visugpx.com">
  <metadata>
    <name>GR21 : Dieppe à Petit-Caux</name>
    <desc><![CDATA[http://mareemonti.canalblog.com/archives/2022/06/19/39534293.html]]></desc>
  </metadata>
  <trk>
    <name><![CDATA[Dieppe à Petit-Caux]]></name>
    <extensions>
      <line xmlns="http://www.topografix.com/GPX/gpx_style/0/2">
        <color>0000FF</color>
        <width>4</width>
      </line>
    </extensions>
    <trkseg>
      <trkpt lat="49.92734" lon="1.08576">
        <ele>6.8</ele>
        <time>2022-06-18T10:33:48+02:00</time>
      </trkpt>
      <trkpt lat="49.92754" lon="1.08556">
        <ele>6.9</ele>
        <time>2022-06-18T10:34:11+02:00</time>
      </trkpt>
      <trkpt lat="49.92778" lon="1.08553">
        <ele>5.98</ele>
        <time>2022-06-18T10:34:31+02:00</time>
      </trkpt>
      <trkpt lat="49.928" lon="1.08564">
        <ele>5.4</ele>
        <time>2022-06-18T10:34:48+02:00</time>
      </trkpt>
      <trkpt lat="49.92821" lon="1.0858">
        <ele>5.1</ele>
        <time>2022-06-18T10:35:08+02:00</time>
      </trkpt>
      <trkpt lat="49.92839" lon="1.08601">
        <ele>6</ele>
        <time>2022-06-18T10:35:25+02:00</time>
      </trkpt>
      <trkpt lat="49.92861" lon="1.08608">
        <ele>6.4</ele>
        <time>2022-06-18T10:35:53+02:00</time>
      </trkpt>
      <trkpt lat="49.92841" lon="1.08628">
        <ele>9.6</ele>
        <time>2022-06-18T10:36:21+02:00</time>
      </trkpt>
      <trkpt lat="49.92852" lon="1.0866">
        <ele>15.6</ele>
        <time>2022-06-18T10:37:16+02:00</time>
      </trkpt>
      <trkpt lat="49.92864" lon="1.08691">
        <ele>22.8</ele>
        <time>2022-06-18T10:37:48+02:00</time>
      </trkpt>
      <trkpt lat="49.92881" lon="1.08716">
        <ele>26.5</ele>
        <time>2022-06-18T10:38:31+02:00</time>
      </trkpt>
      <trkpt lat="49.92924" lon="1.08703">
        <ele>28</ele>
        <time>2022-06-18T10:39:20+02:00</time>
      </trkpt>
      <trkpt lat="49.92944" lon="1.08687">
        <ele>30.4</ele>
        <time>2022-06-18T10:39:41+02:00</time>
      </trkpt>
      <trkpt lat="49.92961" lon="1.08709">
        <ele>31.6</ele>
        <time>2022-06-18T10:41:43+02:00</time>
      </trkpt>
      <trkpt lat="49.92975" lon="1.08738">
        <ele>35</ele>
        <time>2022-06-18T10:42:06+02:00</time>
      </trkpt>
      <trkpt lat="49.92995" lon="1.08757">
        <ele>35</ele>
        <time>2022-06-18T10:42:31+02:00</time>
      </trkpt>
      <trkpt lat="49.93018" lon="1.08757">
        <ele>35.2</ele>
        <time>2022-06-18T10:42:50+02:00</time>
      </trkpt>
      <trkpt lat="49.93039" lon="1.08747">
        <ele>31.7</ele>
        <time>2022-06-18T10:43:13+02:00</time>
      </trkpt>
      <trkpt lat="49.93062" lon="1.08756">
        <ele>31.7</ele>
        <time>2022-06-18T10:43:33+02:00</time>
      </trkpt>
      <trkpt lat="49.93084" lon="1.08763">
        <ele>32.4</ele>
        <time>2022-06-18T10:44:11+02:00</time>
      </trkpt>
      <trkpt lat="49.93106" lon="1.08769">
        <ele>35.6</ele>
        <time>2022-06-18T10:44:28+02:00</time>
      </trkpt>
      <trkpt lat="49.93128" lon="1.08782">
        <ele>33.9</ele>
        <time>2022-06-18T10:44:49+02:00</time>
      </trkpt>
      <trkpt lat="49.93137" lon="1.08816">
        <ele>36</ele>
        <time>2022-06-18T10:45:06+02:00</time>
      </trkpt>
      <trkpt lat="49.9316" lon="1.08809">
        <ele>36.1</ele>
        <time>2022-06-18T10:45:32+02:00</time>
      </trkpt>
      <trkpt lat="49.93171" lon="1.08839">
        <ele>37</ele>
        <time>2022-06-18T10:47:25+02:00</time>
      </trkpt>
      <trkpt lat="49.93191" lon="1.08857">
        <ele>37</ele>
        <time>2022-06-18T10:48:11+02:00</time>
      </trkpt>
      <trkpt lat="49.93207" lon="1.08883">
        <ele>37.8</ele>
        <time>2022-06-18T10:48:47+02:00</time>
      </trkpt>
      <trkpt lat="49.93217" lon="1.08914">
        <ele>38</ele>
        <time>2022-06-18T10:49:05+02:00</time>
      </trkpt>
      <trkpt lat="49.93229" lon="1.08946">
        <ele>38.8</ele>
        <time>2022-06-18T10:49:25+02:00</time>
      </trkpt>
      <trkpt lat="49.93236" lon="1.0898">
        <ele>39</ele>
        <time>2022-06-18T10:49:46+02:00</time>
      </trkpt>
      <trkpt lat="49.93243" lon="1.09014">
        <ele>39.5</ele>
        <time>2022-06-18T10:50:04+02:00</time>
      </trkpt>
      <trkpt lat="49.93255" lon="1.09044">
        <ele>40.1</ele>
        <time>2022-06-18T10:50:24+02:00</time>
      </trkpt>
      <trkpt lat="49.93268" lon="1.09075">
        <ele>40.9</ele>
        <time>2022-06-18T10:50:42+02:00</time>
      </trkpt>
      <trkpt lat="49.93281" lon="1.09105">
        <ele>41</ele>
        <time>2022-06-18T10:51:02+02:00</time>
      </trkpt>
      <trkpt lat="49.93293" lon="1.09135">
        <ele>41.5</ele>
        <time>2022-06-18T10:51:18+02:00</time>
      </trkpt>
      <trkpt lat="49.93308" lon="1.09163">
        <ele>39.3</ele>
        <time>2022-06-18T10:51:37+02:00</time>
      </trkpt>
      <trkpt lat="49.93315" lon="1.09197">
        <ele>42.4</ele>
        <time>2022-06-18T10:51:56+02:00</time>
      </trkpt>
      <trkpt lat="49.93329" lon="1.09227">
        <ele>43</ele>
        <time>2022-06-18T10:52:15+02:00</time>
      </trkpt>
      <trkpt lat="49.93331" lon="1.09262">
        <ele>43</ele>
        <time>2022-06-18T10:52:33+02:00</time>
      </trkpt>
      <trkpt lat="49.93334" lon="1.09299">
        <ele>43.1</ele>
        <time>2022-06-18T10:52:49+02:00</time>
      </trkpt>
      <trkpt lat="49.9334" lon="1.09333">
        <ele>39.5</ele>
        <time>2022-06-18T10:53:11+02:00</time>
      </trkpt>
      <trkpt lat="49.93338" lon="1.09369">
        <ele>41.5</ele>
        <time>2022-06-18T10:53:32+02:00</time>
      </trkpt>
      <trkpt lat="49.9334" lon="1.09404">
        <ele>41.2</ele>
        <time>2022-06-18T10:53:50+02:00</time>
      </trkpt>
      <trkpt lat="49.93342" lon="1.0944">
        <ele>41.7</ele>
        <time>2022-06-18T10:54:11+02:00</time>
      </trkpt>
      <trkpt lat="49.9334" lon="1.09478">
        <ele>45.1</ele>
        <time>2022-06-18T10:54:29+02:00</time>
      </trkpt>
      <trkpt lat="49.93343" lon="1.09513">
        <ele>46</ele>
        <time>2022-06-18T10:54:47+02:00</time>
      </trkpt>
      <trkpt lat="49.9335" lon="1.09547">
        <ele>46.6</ele>
        <time>2022-06-18T10:55:06+02:00</time>
      </trkpt>
      <trkpt lat="49.9336" lon="1.09578">
        <ele>48.5</ele>
        <time>2022-06-18T10:55:24+02:00</time>
      </trkpt>
      <trkpt lat="49.93371" lon="1.0961">
        <ele>47.4</ele>
        <time>2022-06-18T10:55:44+02:00</time>
      </trkpt>
      <trkpt lat="49.93381" lon="1.09645">
        <ele>48.4</ele>
        <time>2022-06-18T10:56:01+02:00</time>
      </trkpt>
      <trkpt lat="49.93392" lon="1.09679">
        <ele>49.2</ele>
        <time>2022-06-18T10:56:21+02:00</time>
      </trkpt>
      <trkpt lat="49.93403" lon="1.09712">
        <ele>48.9</ele>
        <time>2022-06-18T10:56:41+02:00</time>
      </trkpt>
      <trkpt lat="49.93418" lon="1.0974">
        <ele>49.5</ele>
        <time>2022-06-18T10:56:57+02:00</time>
      </trkpt>
      <trkpt lat="49.93429" lon="1.09772">
        <ele>46.9</ele>
        <time>2022-06-18T10:57:15+02:00</time>
      </trkpt>
      <trkpt lat="49.93438" lon="1.09806">
        <ele>49.7</ele>
        <time>2022-06-18T10:57:35+02:00</time>
      </trkpt>
      <trkpt lat="49.93448" lon="1.09839">
        <ele>49.1</ele>
        <time>2022-06-18T10:57:55+02:00</time>
      </trkpt>
      <trkpt lat="49.93456" lon="1.09873">
        <ele>47.3</ele>
        <time>2022-06-18T10:58:15+02:00</time>
      </trkpt>
      <trkpt lat="49.93465" lon="1.09909">
        <ele>47.1</ele>
        <time>2022-06-18T10:58:34+02:00</time>
      </trkpt>
      <trkpt lat="49.9347" lon="1.09943">
        <ele>49.2</ele>
        <time>2022-06-18T10:58:54+02:00</time>
      </trkpt>
      <trkpt lat="49.93471" lon="1.09978">
        <ele>51.5</ele>
        <time>2022-06-18T10:59:12+02:00</time>
      </trkpt>
      <trkpt lat="49.93475" lon="1.10015">
        <ele>52.4</ele>
        <time>2022-06-18T10:59:31+02:00</time>
      </trkpt>
      <trkpt lat="49.93476" lon="1.10051">
        <ele>52.5</ele>
        <time>2022-06-18T10:59:48+02:00</time>
      </trkpt>
      <trkpt lat="49.93474" lon="1.10087">
        <ele>53.4</ele>
        <time>2022-06-18T11:00:08+02:00</time>
      </trkpt>
      <trkpt lat="49.93474" lon="1.10124">
        <ele>53.6</ele>
        <time>2022-06-18T11:00:28+02:00</time>
      </trkpt>
      <trkpt lat="49.93468" lon="1.10158">
        <ele>54.2</ele>
        <time>2022-06-18T11:00:54+02:00</time>
      </trkpt>
      <trkpt lat="49.93484" lon="1.10184">
        <ele>52.7</ele>
        <time>2022-06-18T11:01:14+02:00</time>
      </trkpt>
      <trkpt lat="49.93502" lon="1.10207">
        <ele>54.3</ele>
        <time>2022-06-18T11:01:35+02:00</time>
      </trkpt>
      <trkpt lat="49.93517" lon="1.10237">
        <ele>55.5</ele>
        <time>2022-06-18T11:01:53+02:00</time>
      </trkpt>
      <trkpt lat="49.93524" lon="1.10271">
        <ele>56.1</ele>
        <time>2022-06-18T11:02:08+02:00</time>
      </trkpt>
      <trkpt lat="49.93525" lon="1.10306">
        <ele>54.1</ele>
        <time>2022-06-18T11:02:27+02:00</time>
      </trkpt>
      <trkpt lat="49.93523" lon="1.10343">
        <ele>54.2</ele>
        <time>2022-06-18T11:02:45+02:00</time>
      </trkpt>
      <trkpt lat="49.93518" lon="1.10377">
        <ele>54.4</ele>
        <time>2022-06-18T11:03:03+02:00</time>
      </trkpt>
      <trkpt lat="49.93519" lon="1.10414">
        <ele>54.3</ele>
        <time>2022-06-18T11:03:22+02:00</time>
      </trkpt>
      <trkpt lat="49.9352" lon="1.10449">
        <ele>54.3</ele>
        <time>2022-06-18T11:03:38+02:00</time>
      </trkpt>
      <trkpt lat="49.93526" lon="1.10483">
        <ele>54.1</ele>
        <time>2022-06-18T11:03:57+02:00</time>
      </trkpt>
      <trkpt lat="49.93527" lon="1.10553">
        <ele>53.1</ele>
        <time>2022-06-18T11:04:34+02:00</time>
      </trkpt>
      <trkpt lat="49.93526" lon="1.10589">
        <ele>53.1</ele>
        <time>2022-06-18T11:04:51+02:00</time>
      </trkpt>
      <trkpt lat="49.93548" lon="1.10598">
        <ele>51.2</ele>
        <time>2022-06-18T11:05:10+02:00</time>
      </trkpt>
      <trkpt lat="49.9357" lon="1.10601">
        <ele>49.3</ele>
        <time>2022-06-18T11:05:34+02:00</time>
      </trkpt>
      <trkpt lat="49.93594" lon="1.10604">
        <ele>47.4</ele>
        <time>2022-06-18T11:05:48+02:00</time>
      </trkpt>
      <trkpt lat="49.93609" lon="1.1063">
        <ele>46.2</ele>
        <time>2022-06-18T11:06:04+02:00</time>
      </trkpt>
      <trkpt lat="49.93619" lon="1.10662">
        <ele>45.8</ele>
        <time>2022-06-18T11:06:26+02:00</time>
      </trkpt>
      <trkpt lat="49.93635" lon="1.10689">
        <ele>45.1</ele>
        <time>2022-06-18T11:06:43+02:00</time>
      </trkpt>
      <trkpt lat="49.93651" lon="1.10714">
        <ele>41.4</ele>
        <time>2022-06-18T11:07:01+02:00</time>
      </trkpt>
      <trkpt lat="49.93657" lon="1.10749">
        <ele>40.8</ele>
        <time>2022-06-18T11:07:21+02:00</time>
      </trkpt>
      <trkpt lat="49.93647" lon="1.10784">
        <ele>39.2</ele>
        <time>2022-06-18T11:07:41+02:00</time>
      </trkpt>
      <trkpt lat="49.93665" lon="1.10808">
        <ele>30.4</ele>
        <time>2022-06-18T11:08:02+02:00</time>
      </trkpt>
      <trkpt lat="49.9367" lon="1.10844">
        <ele>29.4</ele>
        <time>2022-06-18T11:08:27+02:00</time>
      </trkpt>
      <trkpt lat="49.93682" lon="1.10875">
        <ele>25.7</ele>
        <time>2022-06-18T11:08:45+02:00</time>
      </trkpt>
      <trkpt lat="49.93691" lon="1.10908">
        <ele>23.6</ele>
        <time>2022-06-18T11:09:04+02:00</time>
      </trkpt>
      <trkpt lat="49.93701" lon="1.10939">
        <ele>21.2</ele>
        <time>2022-06-18T11:09:24+02:00</time>
      </trkpt>
      <trkpt lat="49.93721" lon="1.10958">
        <ele>17.7</ele>
        <time>2022-06-18T11:09:49+02:00</time>
      </trkpt>
      <trkpt lat="49.93744" lon="1.10953">
        <ele>14.3</ele>
        <time>2022-06-18T11:10:15+02:00</time>
      </trkpt>
      <trkpt lat="49.93762" lon="1.10975">
        <ele>11.9</ele>
        <time>2022-06-18T11:10:47+02:00</time>
      </trkpt>
      <trkpt lat="49.93762" lon="1.1094">
        <ele>10.9</ele>
        <time>2022-06-18T11:11:06+02:00</time>
      </trkpt>
      <trkpt lat="49.93784" lon="1.10953">
        <ele>8</ele>
        <time>2022-06-18T11:13:12+02:00</time>
      </trkpt>
      <trkpt lat="49.938" lon="1.10979">
        <ele>9.5</ele>
        <time>2022-06-18T11:13:37+02:00</time>
      </trkpt>
      <trkpt lat="49.93811" lon="1.1101">
        <ele>13.7</ele>
        <time>2022-06-18T11:14:57+02:00</time>
      </trkpt>
      <trkpt lat="49.93808" lon="1.11046">
        <ele>21.2</ele>
        <time>2022-06-18T11:15:22+02:00</time>
      </trkpt>
      <trkpt lat="49.93803" lon="1.11081">
        <ele>26.4</ele>
        <time>2022-06-18T11:15:47+02:00</time>
      </trkpt>
      <trkpt lat="49.93793" lon="1.11115">
        <ele>27.6</ele>
        <time>2022-06-18T11:16:10+02:00</time>
      </trkpt>
      <trkpt lat="49.93805" lon="1.11182">
        <ele>34</ele>
        <time>2022-06-18T11:16:57+02:00</time>
      </trkpt>
      <trkpt lat="49.93804" lon="1.11218">
        <ele>35.5</ele>
        <time>2022-06-18T11:17:21+02:00</time>
      </trkpt>
      <trkpt lat="49.9381" lon="1.11252">
        <ele>39.1</ele>
        <time>2022-06-18T11:17:41+02:00</time>
      </trkpt>
      <trkpt lat="49.93813" lon="1.11288">
        <ele>42.1</ele>
        <time>2022-06-18T11:18:04+02:00</time>
      </trkpt>
      <trkpt lat="49.9382" lon="1.11322">
        <ele>45.5</ele>
        <time>2022-06-18T11:18:30+02:00</time>
      </trkpt>
      <trkpt lat="49.93819" lon="1.11357">
        <ele>47.1</ele>
        <time>2022-06-18T11:18:49+02:00</time>
      </trkpt>
      <trkpt lat="49.93826" lon="1.11391">
        <ele>49.9</ele>
        <time>2022-06-18T11:19:09+02:00</time>
      </trkpt>
      <trkpt lat="49.93832" lon="1.11425">
        <ele>51.9</ele>
        <time>2022-06-18T11:19:33+02:00</time>
      </trkpt>
      <trkpt lat="49.9384" lon="1.11458">
        <ele>54.7</ele>
        <time>2022-06-18T11:19:53+02:00</time>
      </trkpt>
      <trkpt lat="49.93838" lon="1.1153">
        <ele>56.4</ele>
        <time>2022-06-18T11:20:36+02:00</time>
      </trkpt>
      <trkpt lat="49.9384" lon="1.11565">
        <ele>57.4</ele>
        <time>2022-06-18T11:20:57+02:00</time>
      </trkpt>
      <trkpt lat="49.93851" lon="1.11596">
        <ele>59.8</ele>
        <time>2022-06-18T11:44:35+02:00</time>
      </trkpt>
      <trkpt lat="49.93852" lon="1.11632">
        <ele>60</ele>
        <time>2022-06-18T11:44:58+02:00</time>
      </trkpt>
      <trkpt lat="49.93852" lon="1.11668">
        <ele>59.4</ele>
        <time>2022-06-18T11:45:18+02:00</time>
      </trkpt>
      <trkpt lat="49.93844" lon="1.11702">
        <ele>58.5</ele>
        <time>2022-06-18T11:45:43+02:00</time>
      </trkpt>
      <trkpt lat="49.93844" lon="1.11774">
        <ele>61</ele>
        <time>2022-06-18T11:46:24+02:00</time>
      </trkpt>
      <trkpt lat="49.93836" lon="1.11807">
        <ele>62.1</ele>
        <time>2022-06-18T11:46:46+02:00</time>
      </trkpt>
      <trkpt lat="49.93836" lon="1.11844">
        <ele>61.5</ele>
        <time>2022-06-18T11:47:05+02:00</time>
      </trkpt>
      <trkpt lat="49.93827" lon="1.11876">
        <ele>58</ele>
        <time>2022-06-18T11:47:26+02:00</time>
      </trkpt>
      <trkpt lat="49.93826" lon="1.11912">
        <ele>57.4</ele>
        <time>2022-06-18T11:47:45+02:00</time>
      </trkpt>
      <trkpt lat="49.93827" lon="1.11949">
        <ele>58</ele>
        <time>2022-06-18T11:48:05+02:00</time>
      </trkpt>
      <trkpt lat="49.93829" lon="1.11984">
        <ele>58.2</ele>
        <time>2022-06-18T11:48:24+02:00</time>
      </trkpt>
      <trkpt lat="49.93826" lon="1.1202">
        <ele>58.2</ele>
        <time>2022-06-18T11:48:42+02:00</time>
      </trkpt>
      <trkpt lat="49.93822" lon="1.12055">
        <ele>56.5</ele>
        <time>2022-06-18T11:48:59+02:00</time>
      </trkpt>
      <trkpt lat="49.93825" lon="1.12091">
        <ele>57.5</ele>
        <time>2022-06-18T11:49:22+02:00</time>
      </trkpt>
      <trkpt lat="49.93825" lon="1.12127">
        <ele>56.8</ele>
        <time>2022-06-18T11:49:42+02:00</time>
      </trkpt>
      <trkpt lat="49.93826" lon="1.12163">
        <ele>57.1</ele>
        <time>2022-06-18T11:50:01+02:00</time>
      </trkpt>
      <trkpt lat="49.93824" lon="1.122">
        <ele>56.1</ele>
        <time>2022-06-18T11:50:22+02:00</time>
      </trkpt>
      <trkpt lat="49.93826" lon="1.12235">
        <ele>57.5</ele>
        <time>2022-06-18T11:50:36+02:00</time>
      </trkpt>
      <trkpt lat="49.93843" lon="1.123">
        <ele>61.2</ele>
        <time>2022-06-18T11:51:22+02:00</time>
      </trkpt>
      <trkpt lat="49.93847" lon="1.12337">
        <ele>60.5</ele>
        <time>2022-06-18T11:51:40+02:00</time>
      </trkpt>
      <trkpt lat="49.93851" lon="1.12371">
        <ele>61.1</ele>
        <time>2022-06-18T11:51:58+02:00</time>
      </trkpt>
      <trkpt lat="49.93874" lon="1.1238">
        <ele>64.5</ele>
        <time>2022-06-18T11:52:25+02:00</time>
      </trkpt>
      <trkpt lat="49.93896" lon="1.12368">
        <ele>66.8</ele>
        <time>2022-06-18T11:52:47+02:00</time>
      </trkpt>
      <trkpt lat="49.93918" lon="1.1236">
        <ele>67</ele>
        <time>2022-06-18T11:53:04+02:00</time>
      </trkpt>
      <trkpt lat="49.93939" lon="1.12345">
        <ele>66.5</ele>
        <time>2022-06-18T11:53:23+02:00</time>
      </trkpt>
      <trkpt lat="49.93961" lon="1.12335">
        <ele>66.1</ele>
        <time>2022-06-18T11:53:40+02:00</time>
      </trkpt>
      <trkpt lat="49.93984" lon="1.12324">
        <ele>65.9</ele>
        <time>2022-06-18T11:53:59+02:00</time>
      </trkpt>
      <trkpt lat="49.94004" lon="1.12342">
        <ele>65.9</ele>
        <time>2022-06-18T11:54:20+02:00</time>
      </trkpt>
      <trkpt lat="49.9401" lon="1.12376">
        <ele>65.8</ele>
        <time>2022-06-18T11:54:40+02:00</time>
      </trkpt>
      <trkpt lat="49.94017" lon="1.12411">
        <ele>66.3</ele>
        <time>2022-06-18T11:54:59+02:00</time>
      </trkpt>
      <trkpt lat="49.94022" lon="1.12446">
        <ele>67</ele>
        <time>2022-06-18T11:55:16+02:00</time>
      </trkpt>
      <trkpt lat="49.94028" lon="1.1248">
        <ele>67</ele>
        <time>2022-06-18T11:55:33+02:00</time>
      </trkpt>
      <trkpt lat="49.94034" lon="1.12514">
        <ele>67</ele>
        <time>2022-06-18T11:55:50+02:00</time>
      </trkpt>
      <trkpt lat="49.9404" lon="1.12548">
        <ele>67.4</ele>
        <time>2022-06-18T11:56:09+02:00</time>
      </trkpt>
      <trkpt lat="49.94047" lon="1.12582">
        <ele>68</ele>
        <time>2022-06-18T11:56:29+02:00</time>
      </trkpt>
      <trkpt lat="49.94054" lon="1.12615">
        <ele>68</ele>
        <time>2022-06-18T11:56:46+02:00</time>
      </trkpt>
      <trkpt lat="49.9406" lon="1.12651">
        <ele>68.4</ele>
        <time>2022-06-18T11:57:04+02:00</time>
      </trkpt>
      <trkpt lat="49.94068" lon="1.12685">
        <ele>68.6</ele>
        <time>2022-06-18T11:57:24+02:00</time>
      </trkpt>
      <trkpt lat="49.94074" lon="1.1272">
        <ele>68.9</ele>
        <time>2022-06-18T11:57:42+02:00</time>
      </trkpt>
      <trkpt lat="49.94086" lon="1.12788">
        <ele>69</ele>
        <time>2022-06-18T11:58:18+02:00</time>
      </trkpt>
      <trkpt lat="49.94093" lon="1.12823">
        <ele>69.4</ele>
        <time>2022-06-18T11:58:36+02:00</time>
      </trkpt>
      <trkpt lat="49.941" lon="1.12856">
        <ele>69.9</ele>
        <time>2022-06-18T11:58:56+02:00</time>
      </trkpt>
      <trkpt lat="49.94107" lon="1.1289">
        <ele>69.9</ele>
        <time>2022-06-18T11:59:15+02:00</time>
      </trkpt>
      <trkpt lat="49.9411" lon="1.12926">
        <ele>71</ele>
        <time>2022-06-18T11:59:40+02:00</time>
      </trkpt>
      <trkpt lat="49.9411" lon="1.12962">
        <ele>70.4</ele>
        <time>2022-06-18T11:59:56+02:00</time>
      </trkpt>
      <trkpt lat="49.94109" lon="1.12998">
        <ele>70</ele>
        <time>2022-06-18T12:00:14+02:00</time>
      </trkpt>
      <trkpt lat="49.94106" lon="1.13034">
        <ele>70</ele>
        <time>2022-06-18T12:00:33+02:00</time>
      </trkpt>
      <trkpt lat="49.94105" lon="1.13069">
        <ele>70.4</ele>
        <time>2022-06-18T12:00:50+02:00</time>
      </trkpt>
      <trkpt lat="49.94108" lon="1.13105">
        <ele>70.9</ele>
        <time>2022-06-18T12:01:09+02:00</time>
      </trkpt>
      <trkpt lat="49.94108" lon="1.13141">
        <ele>70.9</ele>
        <time>2022-06-18T12:01:28+02:00</time>
      </trkpt>
      <trkpt lat="49.94109" lon="1.13177">
        <ele>71</ele>
        <time>2022-06-18T12:01:47+02:00</time>
      </trkpt>
      <trkpt lat="49.94111" lon="1.13213">
        <ele>71</ele>
        <time>2022-06-18T12:02:04+02:00</time>
      </trkpt>
      <trkpt lat="49.9411" lon="1.13249">
        <ele>71</ele>
        <time>2022-06-18T12:02:24+02:00</time>
      </trkpt>
      <trkpt lat="49.9411" lon="1.13285">
        <ele>71.2</ele>
        <time>2022-06-18T12:02:42+02:00</time>
      </trkpt>
      <trkpt lat="49.94112" lon="1.13321">
        <ele>72</ele>
        <time>2022-06-18T12:03:02+02:00</time>
      </trkpt>
      <trkpt lat="49.94114" lon="1.13357">
        <ele>71.9</ele>
        <time>2022-06-18T12:03:22+02:00</time>
      </trkpt>
      <trkpt lat="49.94117" lon="1.13392">
        <ele>72</ele>
        <time>2022-06-18T12:03:40+02:00</time>
      </trkpt>
      <trkpt lat="49.94121" lon="1.13428">
        <ele>72</ele>
        <time>2022-06-18T12:04:00+02:00</time>
      </trkpt>
      <trkpt lat="49.94126" lon="1.13464">
        <ele>72</ele>
        <time>2022-06-18T12:04:20+02:00</time>
      </trkpt>
      <trkpt lat="49.94126" lon="1.13499">
        <ele>72</ele>
        <time>2022-06-18T12:04:38+02:00</time>
      </trkpt>
      <trkpt lat="49.94129" lon="1.13536">
        <ele>73</ele>
        <time>2022-06-18T12:05:37+02:00</time>
      </trkpt>
      <trkpt lat="49.94133" lon="1.13572">
        <ele>73</ele>
        <time>2022-06-18T12:05:57+02:00</time>
      </trkpt>
      <trkpt lat="49.94133" lon="1.13607">
        <ele>73.7</ele>
        <time>2022-06-18T12:06:15+02:00</time>
      </trkpt>
      <trkpt lat="49.94133" lon="1.13644">
        <ele>74</ele>
        <time>2022-06-18T12:06:33+02:00</time>
      </trkpt>
      <trkpt lat="49.94132" lon="1.13679">
        <ele>74</ele>
        <time>2022-06-18T12:06:52+02:00</time>
      </trkpt>
      <trkpt lat="49.94131" lon="1.13715">
        <ele>74.2</ele>
        <time>2022-06-18T12:07:10+02:00</time>
      </trkpt>
      <trkpt lat="49.94129" lon="1.13751">
        <ele>75</ele>
        <time>2022-06-18T12:07:27+02:00</time>
      </trkpt>
      <trkpt lat="49.94128" lon="1.13786">
        <ele>75.4</ele>
        <time>2022-06-18T12:07:45+02:00</time>
      </trkpt>
      <trkpt lat="49.94133" lon="1.13822">
        <ele>75.2</ele>
        <time>2022-06-18T12:08:04+02:00</time>
      </trkpt>
      <trkpt lat="49.94138" lon="1.13856">
        <ele>75.8</ele>
        <time>2022-06-18T12:08:23+02:00</time>
      </trkpt>
      <trkpt lat="49.94143" lon="1.13891">
        <ele>76.9</ele>
        <time>2022-06-18T12:08:40+02:00</time>
      </trkpt>
      <trkpt lat="49.94151" lon="1.13923">
        <ele>77</ele>
        <time>2022-06-18T12:08:56+02:00</time>
      </trkpt>
      <trkpt lat="49.94158" lon="1.13957">
        <ele>77</ele>
        <time>2022-06-18T12:09:17+02:00</time>
      </trkpt>
      <trkpt lat="49.94164" lon="1.13992">
        <ele>77.7</ele>
        <time>2022-06-18T12:09:36+02:00</time>
      </trkpt>
      <trkpt lat="49.9417" lon="1.14026">
        <ele>78</ele>
        <time>2022-06-18T12:09:55+02:00</time>
      </trkpt>
      <trkpt lat="49.94176" lon="1.14061">
        <ele>78</ele>
        <time>2022-06-18T12:10:12+02:00</time>
      </trkpt>
      <trkpt lat="49.94184" lon="1.14095">
        <ele>78.3</ele>
        <time>2022-06-18T12:10:32+02:00</time>
      </trkpt>
      <trkpt lat="49.94188" lon="1.1413">
        <ele>78.9</ele>
        <time>2022-06-18T12:10:49+02:00</time>
      </trkpt>
      <trkpt lat="49.94199" lon="1.14162">
        <ele>79.7</ele>
        <time>2022-06-18T12:11:09+02:00</time>
      </trkpt>
      <trkpt lat="49.94206" lon="1.14196">
        <ele>80</ele>
        <time>2022-06-18T12:11:26+02:00</time>
      </trkpt>
      <trkpt lat="49.9421" lon="1.14231">
        <ele>80.1</ele>
        <time>2022-06-18T12:11:43+02:00</time>
      </trkpt>
      <trkpt lat="49.94219" lon="1.14265">
        <ele>80.2</ele>
        <time>2022-06-18T12:12:00+02:00</time>
      </trkpt>
      <trkpt lat="49.94228" lon="1.14299">
        <ele>81</ele>
        <time>2022-06-18T12:12:23+02:00</time>
      </trkpt>
      <trkpt lat="49.94235" lon="1.14333">
        <ele>81.5</ele>
        <time>2022-06-18T12:12:37+02:00</time>
      </trkpt>
      <trkpt lat="49.94242" lon="1.14368">
        <ele>82.3</ele>
        <time>2022-06-18T12:12:52+02:00</time>
      </trkpt>
      <trkpt lat="49.94254" lon="1.14398">
        <ele>82.7</ele>
        <time>2022-06-18T12:13:13+02:00</time>
      </trkpt>
      <trkpt lat="49.94264" lon="1.14431">
        <ele>83.8</ele>
        <time>2022-06-18T12:13:31+02:00</time>
      </trkpt>
      <trkpt lat="49.94268" lon="1.14467">
        <ele>83.5</ele>
        <time>2022-06-18T12:13:49+02:00</time>
      </trkpt>
      <trkpt lat="49.94279" lon="1.14498">
        <ele>83.1</ele>
        <time>2022-06-18T12:14:08+02:00</time>
      </trkpt>
      <trkpt lat="49.94288" lon="1.14532">
        <ele>85</ele>
        <time>2022-06-18T12:14:28+02:00</time>
      </trkpt>
      <trkpt lat="49.94297" lon="1.14565">
        <ele>85.1</ele>
        <time>2022-06-18T12:14:50+02:00</time>
      </trkpt>
      <trkpt lat="49.94307" lon="1.14599">
        <ele>85.1</ele>
        <time>2022-06-18T12:15:08+02:00</time>
      </trkpt>
      <trkpt lat="49.94318" lon="1.14631">
        <ele>85.8</ele>
        <time>2022-06-18T12:15:28+02:00</time>
      </trkpt>
      <trkpt lat="49.94327" lon="1.14664">
        <ele>86.2</ele>
        <time>2022-06-18T12:15:49+02:00</time>
      </trkpt>
      <trkpt lat="49.94337" lon="1.14696">
        <ele>86.2</ele>
        <time>2022-06-18T12:16:09+02:00</time>
      </trkpt>
      <trkpt lat="49.94348" lon="1.14729">
        <ele>87</ele>
        <time>2022-06-18T12:16:27+02:00</time>
      </trkpt>
      <trkpt lat="49.94359" lon="1.14762">
        <ele>87</ele>
        <time>2022-06-18T12:16:46+02:00</time>
      </trkpt>
      <trkpt lat="49.94372" lon="1.14793">
        <ele>87.3</ele>
        <time>2022-06-18T12:17:06+02:00</time>
      </trkpt>
      <trkpt lat="49.94385" lon="1.14823">
        <ele>87.2</ele>
        <time>2022-06-18T12:17:25+02:00</time>
      </trkpt>
      <trkpt lat="49.94395" lon="1.14854">
        <ele>87.7</ele>
        <time>2022-06-18T12:17:43+02:00</time>
      </trkpt>
      <trkpt lat="49.94405" lon="1.14886">
        <ele>88</ele>
        <time>2022-06-18T12:17:58+02:00</time>
      </trkpt>
      <trkpt lat="49.94417" lon="1.14916">
        <ele>88</ele>
        <time>2022-06-18T12:18:17+02:00</time>
      </trkpt>
      <trkpt lat="49.94426" lon="1.1495">
        <ele>88.1</ele>
        <time>2022-06-18T12:18:36+02:00</time>
      </trkpt>
      <trkpt lat="49.94436" lon="1.14982">
        <ele>88.3</ele>
        <time>2022-06-18T12:18:56+02:00</time>
      </trkpt>
      <trkpt lat="49.94446" lon="1.15014">
        <ele>88.5</ele>
        <time>2022-06-18T12:19:12+02:00</time>
      </trkpt>
      <trkpt lat="49.94457" lon="1.15045">
        <ele>89</ele>
        <time>2022-06-18T12:19:32+02:00</time>
      </trkpt>
      <trkpt lat="49.94466" lon="1.15078">
        <ele>89</ele>
        <time>2022-06-18T12:20:38+02:00</time>
      </trkpt>
      <trkpt lat="49.94476" lon="1.1511">
        <ele>89</ele>
        <time>2022-06-18T12:20:58+02:00</time>
      </trkpt>
      <trkpt lat="49.94492" lon="1.15138">
        <ele>89</ele>
        <time>2022-06-18T12:21:17+02:00</time>
      </trkpt>
      <trkpt lat="49.94507" lon="1.15165">
        <ele>89.7</ele>
        <time>2022-06-18T12:21:33+02:00</time>
      </trkpt>
      <trkpt lat="49.94522" lon="1.15192">
        <ele>89.9</ele>
        <time>2022-06-18T12:28:42+02:00</time>
      </trkpt>
      <trkpt lat="49.94538" lon="1.15217">
        <ele>90</ele>
        <time>2022-06-18T12:29:01+02:00</time>
      </trkpt>
      <trkpt lat="49.94557" lon="1.15241">
        <ele>90.6</ele>
        <time>2022-06-18T12:29:25+02:00</time>
      </trkpt>
      <trkpt lat="49.94574" lon="1.15267">
        <ele>90.7</ele>
        <time>2022-06-18T12:29:43+02:00</time>
      </trkpt>
      <trkpt lat="49.94591" lon="1.15291">
        <ele>91</ele>
        <time>2022-06-18T12:30:02+02:00</time>
      </trkpt>
      <trkpt lat="49.94604" lon="1.1532">
        <ele>91</ele>
        <time>2022-06-18T12:30:17+02:00</time>
      </trkpt>
      <trkpt lat="49.94624" lon="1.15342">
        <ele>91.3</ele>
        <time>2022-06-18T12:30:37+02:00</time>
      </trkpt>
      <trkpt lat="49.94635" lon="1.15372">
        <ele>92</ele>
        <time>2022-06-18T12:30:53+02:00</time>
      </trkpt>
      <trkpt lat="49.9465" lon="1.15399">
        <ele>92.6</ele>
        <time>2022-06-18T12:31:10+02:00</time>
      </trkpt>
      <trkpt lat="49.94663" lon="1.1543">
        <ele>93.4</ele>
        <time>2022-06-18T12:31:26+02:00</time>
      </trkpt>
      <trkpt lat="49.94676" lon="1.15458">
        <ele>93.8</ele>
        <time>2022-06-18T12:31:45+02:00</time>
      </trkpt>
      <trkpt lat="49.9469" lon="1.15486">
        <ele>94</ele>
        <time>2022-06-18T12:32:02+02:00</time>
      </trkpt>
      <trkpt lat="49.94708" lon="1.15512">
        <ele>94</ele>
        <time>2022-06-18T12:32:20+02:00</time>
      </trkpt>
      <trkpt lat="49.94719" lon="1.15545">
        <ele>94.1</ele>
        <time>2022-06-18T12:32:38+02:00</time>
      </trkpt>
      <trkpt lat="49.94749" lon="1.15598">
        <ele>94.5</ele>
        <time>2022-06-18T12:33:16+02:00</time>
      </trkpt>
      <trkpt lat="49.94772" lon="1.15604">
        <ele>94.2</ele>
        <time>2022-06-18T12:36:22+02:00</time>
      </trkpt>
      <trkpt lat="49.94792" lon="1.15618">
        <ele>94.1</ele>
        <time>2022-06-18T12:36:40+02:00</time>
      </trkpt>
      <trkpt lat="49.94807" lon="1.15645">
        <ele>94</ele>
        <time>2022-06-18T12:36:58+02:00</time>
      </trkpt>
      <trkpt lat="49.94825" lon="1.15668">
        <ele>94</ele>
        <time>2022-06-18T12:37:18+02:00</time>
      </trkpt>
      <trkpt lat="49.94838" lon="1.15699">
        <ele>94.8</ele>
        <time>2022-06-18T12:37:36+02:00</time>
      </trkpt>
      <trkpt lat="49.94849" lon="1.1573">
        <ele>94.4</ele>
        <time>2022-06-18T12:37:53+02:00</time>
      </trkpt>
      <trkpt lat="49.94858" lon="1.15763">
        <ele>94.5</ele>
        <time>2022-06-18T12:38:11+02:00</time>
      </trkpt>
      <trkpt lat="49.94867" lon="1.15796">
        <ele>95.4</ele>
        <time>2022-06-18T12:38:28+02:00</time>
      </trkpt>
      <trkpt lat="49.94879" lon="1.15826">
        <ele>95.8</ele>
        <time>2022-06-18T12:38:45+02:00</time>
      </trkpt>
      <trkpt lat="49.94886" lon="1.15859">
        <ele>96</ele>
        <time>2022-06-18T12:39:00+02:00</time>
      </trkpt>
      <trkpt lat="49.94892" lon="1.15894">
        <ele>96.2</ele>
        <time>2022-06-18T12:39:14+02:00</time>
      </trkpt>
      <trkpt lat="49.94903" lon="1.15925">
        <ele>96.6</ele>
        <time>2022-06-18T12:39:36+02:00</time>
      </trkpt>
      <trkpt lat="49.94914" lon="1.15956">
        <ele>97</ele>
        <time>2022-06-18T12:39:52+02:00</time>
      </trkpt>
      <trkpt lat="49.94929" lon="1.15985">
        <ele>97.3</ele>
        <time>2022-06-18T12:40:11+02:00</time>
      </trkpt>
      <trkpt lat="49.9494" lon="1.16018">
        <ele>97.7</ele>
        <time>2022-06-18T12:40:30+02:00</time>
      </trkpt>
      <trkpt lat="49.94956" lon="1.16045">
        <ele>97.8</ele>
        <time>2022-06-18T12:40:47+02:00</time>
      </trkpt>
      <trkpt lat="49.94973" lon="1.16069">
        <ele>98</ele>
        <time>2022-06-18T12:41:03+02:00</time>
      </trkpt>
      <trkpt lat="49.94992" lon="1.16087">
        <ele>98</ele>
        <time>2022-06-18T12:41:23+02:00</time>
      </trkpt>
      <trkpt lat="49.95009" lon="1.16111">
        <ele>98</ele>
        <time>2022-06-18T12:41:41+02:00</time>
      </trkpt>
      <trkpt lat="49.95025" lon="1.1614">
        <ele>98.1</ele>
        <time>2022-06-18T12:41:59+02:00</time>
      </trkpt>
      <trkpt lat="49.9504" lon="1.16166">
        <ele>98.5</ele>
        <time>2022-06-18T12:42:19+02:00</time>
      </trkpt>
      <trkpt lat="49.95049" lon="1.16198">
        <ele>98.3</ele>
        <time>2022-06-18T12:42:36+02:00</time>
      </trkpt>
      <trkpt lat="49.95064" lon="1.16227">
        <ele>98.9</ele>
        <time>2022-06-18T12:42:53+02:00</time>
      </trkpt>
      <trkpt lat="49.95073" lon="1.1626">
        <ele>98.6</ele>
        <time>2022-06-18T12:43:12+02:00</time>
      </trkpt>
      <trkpt lat="49.95082" lon="1.16293">
        <ele>99</ele>
        <time>2022-06-18T12:43:30+02:00</time>
      </trkpt>
      <trkpt lat="49.95091" lon="1.16328">
        <ele>98.7</ele>
        <time>2022-06-18T12:43:49+02:00</time>
      </trkpt>
      <trkpt lat="49.9511" lon="1.16346">
        <ele>98</ele>
        <time>2022-06-18T12:44:10+02:00</time>
      </trkpt>
      <trkpt lat="49.95132" lon="1.16333">
        <ele>97.3</ele>
        <time>2022-06-18T12:44:29+02:00</time>
      </trkpt>
      <trkpt lat="49.95152" lon="1.16316">
        <ele>97.3</ele>
        <time>2022-06-18T12:44:46+02:00</time>
      </trkpt>
      <trkpt lat="49.95173" lon="1.16301">
        <ele>96.6</ele>
        <time>2022-06-18T12:45:06+02:00</time>
      </trkpt>
      <trkpt lat="49.95194" lon="1.1629">
        <ele>95.6</ele>
        <time>2022-06-18T12:45:25+02:00</time>
      </trkpt>
      <trkpt lat="49.95218" lon="1.16284">
        <ele>95.1</ele>
        <time>2022-06-18T12:45:46+02:00</time>
      </trkpt>
      <trkpt lat="49.95238" lon="1.16304">
        <ele>93.9</ele>
        <time>2022-06-18T12:46:04+02:00</time>
      </trkpt>
      <trkpt lat="49.95254" lon="1.16331">
        <ele>93.6</ele>
        <time>2022-06-18T12:46:25+02:00</time>
      </trkpt>
      <trkpt lat="49.95265" lon="1.16361">
        <ele>93.5</ele>
        <time>2022-06-18T12:46:41+02:00</time>
      </trkpt>
      <trkpt lat="49.95279" lon="1.16388">
        <ele>93</ele>
        <time>2022-06-18T12:46:57+02:00</time>
      </trkpt>
      <trkpt lat="49.95294" lon="1.16415">
        <ele>92.8</ele>
        <time>2022-06-18T12:47:14+02:00</time>
      </trkpt>
      <trkpt lat="49.95309" lon="1.16442">
        <ele>92.7</ele>
        <time>2022-06-18T12:47:36+02:00</time>
      </trkpt>
      <trkpt lat="49.95323" lon="1.1647">
        <ele>91.4</ele>
        <time>2022-06-18T12:47:58+02:00</time>
      </trkpt>
      <trkpt lat="49.95338" lon="1.16498">
        <ele>90.8</ele>
        <time>2022-06-18T12:48:15+02:00</time>
      </trkpt>
      <trkpt lat="49.9536" lon="1.16505">
        <ele>90</ele>
        <time>2022-06-18T12:48:34+02:00</time>
      </trkpt>
      <trkpt lat="49.95381" lon="1.16522">
        <ele>89.4</ele>
        <time>2022-06-18T12:48:51+02:00</time>
      </trkpt>
      <trkpt lat="49.95401" lon="1.16541">
        <ele>89.3</ele>
        <time>2022-06-18T12:49:08+02:00</time>
      </trkpt>
      <trkpt lat="49.95439" lon="1.16577">
        <ele>88.2</ele>
        <time>2022-06-18T12:49:44+02:00</time>
      </trkpt>
      <trkpt lat="49.95461" lon="1.16585">
        <ele>87.4</ele>
        <time>2022-06-18T12:50:00+02:00</time>
      </trkpt>
      <trkpt lat="49.95484" lon="1.16596">
        <ele>86.6</ele>
        <time>2022-06-18T12:50:20+02:00</time>
      </trkpt>
      <trkpt lat="49.95506" lon="1.16602">
        <ele>86</ele>
        <time>2022-06-18T12:50:37+02:00</time>
      </trkpt>
      <trkpt lat="49.95529" lon="1.1661">
        <ele>86</ele>
        <time>2022-06-18T12:50:54+02:00</time>
      </trkpt>
      <trkpt lat="49.95551" lon="1.16619">
        <ele>85.1</ele>
        <time>2022-06-18T12:51:13+02:00</time>
      </trkpt>
      <trkpt lat="49.95573" lon="1.16623">
        <ele>84.4</ele>
        <time>2022-06-18T12:51:28+02:00</time>
      </trkpt>
      <trkpt lat="49.95596" lon="1.16634">
        <ele>84</ele>
        <time>2022-06-18T12:51:46+02:00</time>
      </trkpt>
      <trkpt lat="49.95619" lon="1.16641">
        <ele>83.7</ele>
        <time>2022-06-18T12:52:04+02:00</time>
      </trkpt>
      <trkpt lat="49.95639" lon="1.16656">
        <ele>83</ele>
        <time>2022-06-18T12:52:22+02:00</time>
      </trkpt>
      <trkpt lat="49.95658" lon="1.16676">
        <ele>82</ele>
        <time>2022-06-18T12:52:41+02:00</time>
      </trkpt>
      <trkpt lat="49.95672" lon="1.16704">
        <ele>80.7</ele>
        <time>2022-06-18T12:53:00+02:00</time>
      </trkpt>
      <trkpt lat="49.95687" lon="1.16733">
        <ele>79.5</ele>
        <time>2022-06-18T12:53:17+02:00</time>
      </trkpt>
      <trkpt lat="49.95704" lon="1.16757">
        <ele>76.8</ele>
        <time>2022-06-18T12:53:36+02:00</time>
      </trkpt>
      <trkpt lat="49.95727" lon="1.16764">
        <ele>72.3</ele>
        <time>2022-06-18T12:53:56+02:00</time>
      </trkpt>
      <trkpt lat="49.95745" lon="1.16742">
        <ele>68.2</ele>
        <time>2022-06-18T12:54:31+02:00</time>
      </trkpt>
      <trkpt lat="49.95769" lon="1.1675">
        <ele>63.9</ele>
        <time>2022-06-18T12:54:52+02:00</time>
      </trkpt>
      <trkpt lat="49.95788" lon="1.16769">
        <ele>60.9</ele>
        <time>2022-06-18T12:55:09+02:00</time>
      </trkpt>
      <trkpt lat="49.95806" lon="1.16791">
        <ele>57.4</ele>
        <time>2022-06-18T12:55:31+02:00</time>
      </trkpt>
      <trkpt lat="49.95828" lon="1.16801">
        <ele>52.3</ele>
        <time>2022-06-18T12:55:52+02:00</time>
      </trkpt>
      <trkpt lat="49.9585" lon="1.1683">
        <ele>46.7</ele>
        <time>2022-06-18T12:56:20+02:00</time>
      </trkpt>
      <trkpt lat="49.95865" lon="1.16857">
        <ele>41.1</ele>
        <time>2022-06-18T12:56:44+02:00</time>
      </trkpt>
      <trkpt lat="49.95872" lon="1.16892">
        <ele>36.8</ele>
        <time>2022-06-18T12:57:10+02:00</time>
      </trkpt>
      <trkpt lat="49.95854" lon="1.16914">
        <ele>38</ele>
        <time>2022-06-18T12:57:26+02:00</time>
      </trkpt>
      <trkpt lat="49.95827" lon="1.16967">
        <ele>31.7</ele>
        <time>2022-06-18T12:58:27+02:00</time>
      </trkpt>
      <trkpt lat="49.95814" lon="1.16997">
        <ele>32.8</ele>
        <time>2022-06-18T12:58:45+02:00</time>
      </trkpt>
      <trkpt lat="49.95837" lon="1.16997">
        <ele>26.1</ele>
        <time>2022-06-18T12:59:47+02:00</time>
      </trkpt>
      <trkpt lat="49.9585" lon="1.16966">
        <ele>28.8</ele>
        <time>2022-06-18T13:00:07+02:00</time>
      </trkpt>
      <trkpt lat="49.9587" lon="1.1695">
        <ele>23.2</ele>
        <time>2022-06-18T13:00:28+02:00</time>
      </trkpt>
      <trkpt lat="49.95892" lon="1.16939">
        <ele>19.3</ele>
        <time>2022-06-18T13:00:49+02:00</time>
      </trkpt>
      <trkpt lat="49.95913" lon="1.16923">
        <ele>16.3</ele>
        <time>2022-06-18T13:01:12+02:00</time>
      </trkpt>
      <trkpt lat="49.95935" lon="1.16913">
        <ele>8</ele>
        <time>2022-06-18T13:01:35+02:00</time>
      </trkpt>
      <trkpt lat="49.95952" lon="1.16889">
        <ele>3.2</ele>
        <time>2022-06-18T13:04:33+02:00</time>
      </trkpt>
      <trkpt lat="49.95972" lon="1.16908">
        <ele>2.4</ele>
        <time>2022-06-18T13:05:21+02:00</time>
      </trkpt>
      <trkpt lat="49.95984" lon="1.16938">
        <ele>3.4</ele>
        <time>2022-06-18T13:06:02+02:00</time>
      </trkpt>
      <trkpt lat="49.9597" lon="1.1691">
        <ele>2.8</ele>
        <time>2022-06-18T13:07:28+02:00</time>
      </trkpt>
      <trkpt lat="49.95949" lon="1.16897">
        <ele>4.3</ele>
        <time>2022-06-18T13:07:56+02:00</time>
      </trkpt>
      <trkpt lat="49.95928" lon="1.16908">
        <ele>8.6</ele>
        <time>2022-06-18T13:08:36+02:00</time>
      </trkpt>
      <trkpt lat="49.95906" lon="1.16921">
        <ele>17.4</ele>
        <time>2022-06-18T13:09:05+02:00</time>
      </trkpt>
      <trkpt lat="49.95886" lon="1.16939">
        <ele>19.1</ele>
        <time>2022-06-18T13:09:34+02:00</time>
      </trkpt>
      <trkpt lat="49.95864" lon="1.16951">
        <ele>24.3</ele>
        <time>2022-06-18T13:10:04+02:00</time>
      </trkpt>
      <trkpt lat="49.95886" lon="1.16962">
        <ele>28.3</ele>
        <time>2022-06-18T13:11:18+02:00</time>
      </trkpt>
      <trkpt lat="49.95908" lon="1.16962">
        <ele>31.7</ele>
        <time>2022-06-18T13:11:43+02:00</time>
      </trkpt>
      <trkpt lat="49.95931" lon="1.16965">
        <ele>32.2</ele>
        <time>2022-06-18T13:12:10+02:00</time>
      </trkpt>
      <trkpt lat="49.95941" lon="1.16997">
        <ele>35.7</ele>
        <time>2022-06-18T13:12:29+02:00</time>
      </trkpt>
      <trkpt lat="49.95948" lon="1.17031">
        <ele>38.7</ele>
        <time>2022-06-18T13:12:56+02:00</time>
      </trkpt>
      <trkpt lat="49.95954" lon="1.17065">
        <ele>42.2</ele>
        <time>2022-06-18T13:13:23+02:00</time>
      </trkpt>
      <trkpt lat="49.95966" lon="1.17095">
        <ele>45.6</ele>
        <time>2022-06-18T13:13:48+02:00</time>
      </trkpt>
      <trkpt lat="49.95972" lon="1.17129">
        <ele>47</ele>
        <time>2022-06-18T13:14:14+02:00</time>
      </trkpt>
      <trkpt lat="49.9597" lon="1.17165">
        <ele>50</ele>
        <time>2022-06-18T13:14:37+02:00</time>
      </trkpt>
      <trkpt lat="49.95968" lon="1.17201">
        <ele>53.4</ele>
        <time>2022-06-18T13:14:57+02:00</time>
      </trkpt>
      <trkpt lat="49.95982" lon="1.17267">
        <ele>61.2</ele>
        <time>2022-06-18T13:15:53+02:00</time>
      </trkpt>
      <trkpt lat="49.95992" lon="1.173">
        <ele>64.5</ele>
        <time>2022-06-18T13:16:20+02:00</time>
      </trkpt>
      <trkpt lat="49.96003" lon="1.17332">
        <ele>65.6</ele>
        <time>2022-06-18T13:16:43+02:00</time>
      </trkpt>
      <trkpt lat="49.96007" lon="1.17368">
        <ele>69.6</ele>
        <time>2022-06-18T13:17:12+02:00</time>
      </trkpt>
      <trkpt lat="49.96016" lon="1.17401">
        <ele>71.5</ele>
        <time>2022-06-18T13:17:43+02:00</time>
      </trkpt>
      <trkpt lat="49.96021" lon="1.17436">
        <ele>73.2</ele>
        <time>2022-06-18T13:18:04+02:00</time>
      </trkpt>
      <trkpt lat="49.96024" lon="1.1747">
        <ele>74.7</ele>
        <time>2022-06-18T13:18:26+02:00</time>
      </trkpt>
      <trkpt lat="49.96025" lon="1.17508">
        <ele>78.8</ele>
        <time>2022-06-18T13:18:51+02:00</time>
      </trkpt>
      <trkpt lat="49.96027" lon="1.17542">
        <ele>83.5</ele>
        <time>2022-06-18T13:19:19+02:00</time>
      </trkpt>
      <trkpt lat="49.96031" lon="1.17577">
        <ele>86.8</ele>
        <time>2022-06-18T13:19:52+02:00</time>
      </trkpt>
      <trkpt lat="49.96022" lon="1.1761">
        <ele>89.9</ele>
        <time>2022-06-18T13:20:50+02:00</time>
      </trkpt>
      <trkpt lat="49.96001" lon="1.17624">
        <ele>90.5</ele>
        <time>2022-06-18T13:21:10+02:00</time>
      </trkpt>
      <trkpt lat="49.9598" lon="1.17637">
        <ele>91.7</ele>
        <time>2022-06-18T13:21:28+02:00</time>
      </trkpt>
      <trkpt lat="49.95959" lon="1.17654">
        <ele>92.8</ele>
        <time>2022-06-18T13:21:46+02:00</time>
      </trkpt>
      <trkpt lat="49.95938" lon="1.17666">
        <ele>93</ele>
        <time>2022-06-18T13:22:07+02:00</time>
      </trkpt>
      <trkpt lat="49.95917" lon="1.17681">
        <ele>93.5</ele>
        <time>2022-06-18T13:22:28+02:00</time>
      </trkpt>
      <trkpt lat="49.95895" lon="1.17696">
        <ele>94</ele>
        <time>2022-06-18T13:22:45+02:00</time>
      </trkpt>
      <trkpt lat="49.95873" lon="1.17707">
        <ele>94.5</ele>
        <time>2022-06-18T13:23:06+02:00</time>
      </trkpt>
      <trkpt lat="49.95852" lon="1.1772">
        <ele>94.9</ele>
        <time>2022-06-18T13:23:26+02:00</time>
      </trkpt>
      <trkpt lat="49.95831" lon="1.17736">
        <ele>95</ele>
        <time>2022-06-18T13:23:43+02:00</time>
      </trkpt>
      <trkpt lat="49.95828" lon="1.17772">
        <ele>95</ele>
        <time>2022-06-18T13:24:07+02:00</time>
      </trkpt>
      <trkpt lat="49.95843" lon="1.17839">
        <ele>96</ele>
        <time>2022-06-18T13:24:44+02:00</time>
      </trkpt>
      <trkpt lat="49.95855" lon="1.17907">
        <ele>96.7</ele>
        <time>2022-06-18T13:25:29+02:00</time>
      </trkpt>
      <trkpt lat="49.95859" lon="1.17942">
        <ele>97</ele>
        <time>2022-06-18T13:25:47+02:00</time>
      </trkpt>
      <trkpt lat="49.95865" lon="1.17977">
        <ele>97.9</ele>
        <time>2022-06-18T13:26:09+02:00</time>
      </trkpt>
      <trkpt lat="49.95878" lon="1.18045">
        <ele>98.4</ele>
        <time>2022-06-18T13:26:47+02:00</time>
      </trkpt>
      <trkpt lat="49.95886" lon="1.18079">
        <ele>99</ele>
        <time>2022-06-18T13:27:11+02:00</time>
      </trkpt>
      <trkpt lat="49.95892" lon="1.18114">
        <ele>99</ele>
        <time>2022-06-18T13:27:30+02:00</time>
      </trkpt>
      <trkpt lat="49.95911" lon="1.18178">
        <ele>100</ele>
        <time>2022-06-18T13:28:08+02:00</time>
      </trkpt>
      <trkpt lat="49.95921" lon="1.1821">
        <ele>100</ele>
        <time>2022-06-18T13:28:41+02:00</time>
      </trkpt>
      <trkpt lat="49.95932" lon="1.18242">
        <ele>100</ele>
        <time>2022-06-18T13:29:06+02:00</time>
      </trkpt>
      <trkpt lat="49.95929" lon="1.18304">
        <ele>101</ele>
        <time>2022-06-18T13:32:59+02:00</time>
      </trkpt>
      <trkpt lat="49.95915" lon="1.18333">
        <ele>101</ele>
        <time>2022-06-18T13:33:21+02:00</time>
      </trkpt>
      <trkpt lat="49.959" lon="1.1836">
        <ele>101</ele>
        <time>2022-06-18T13:33:42+02:00</time>
      </trkpt>
      <trkpt lat="49.95898" lon="1.18396">
        <ele>101.3</ele>
        <time>2022-06-18T13:34:05+02:00</time>
      </trkpt>
      <trkpt lat="49.95907" lon="1.1843">
        <ele>102</ele>
        <time>2022-06-18T13:34:25+02:00</time>
      </trkpt>
      <trkpt lat="49.95918" lon="1.18462">
        <ele>102</ele>
        <time>2022-06-18T13:34:46+02:00</time>
      </trkpt>
      <trkpt lat="49.95929" lon="1.18493">
        <ele>102</ele>
        <time>2022-06-18T13:35:04+02:00</time>
      </trkpt>
      <trkpt lat="49.95913" lon="1.18517">
        <ele>102.1</ele>
        <time>2022-06-18T13:35:30+02:00</time>
      </trkpt>
      <trkpt lat="49.9589" lon="1.18517">
        <ele>102.6</ele>
        <time>2022-06-18T13:35:50+02:00</time>
      </trkpt>
      <trkpt lat="49.95868" lon="1.18522">
        <ele>102.8</ele>
        <time>2022-06-18T13:36:07+02:00</time>
      </trkpt>
      <trkpt lat="49.95847" lon="1.18536">
        <ele>102.5</ele>
        <time>2022-06-18T13:36:26+02:00</time>
      </trkpt>
      <trkpt lat="49.95842" lon="1.18571">
        <ele>102.7</ele>
        <time>2022-06-18T13:36:43+02:00</time>
      </trkpt>
      <trkpt lat="49.95842" lon="1.18607">
        <ele>103</ele>
        <time>2022-06-18T13:37:04+02:00</time>
      </trkpt>
      <trkpt lat="49.95838" lon="1.18641">
        <ele>102.9</ele>
        <time>2022-06-18T13:37:23+02:00</time>
      </trkpt>
      <trkpt lat="49.95833" lon="1.18677">
        <ele>102</ele>
        <time>2022-06-18T13:37:42+02:00</time>
      </trkpt>
      <trkpt lat="49.95828" lon="1.18711">
        <ele>102</ele>
        <time>2022-06-18T13:37:59+02:00</time>
      </trkpt>
      <trkpt lat="49.95804" lon="1.1871">
        <ele>102</ele>
        <time>2022-06-18T13:38:17+02:00</time>
      </trkpt>
      <trkpt lat="49.95781" lon="1.18711">
        <ele>102</ele>
        <time>2022-06-18T13:38:38+02:00</time>
      </trkpt>
      <trkpt lat="49.95757" lon="1.18708">
        <ele>102</ele>
        <time>2022-06-18T13:38:53+02:00</time>
      </trkpt>
      <trkpt lat="49.95736" lon="1.18724">
        <ele>102</ele>
        <time>2022-06-18T13:39:13+02:00</time>
      </trkpt>
      <trkpt lat="49.95713" lon="1.18719">
        <ele>102</ele>
        <time>2022-06-18T13:39:35+02:00</time>
      </trkpt>
      <trkpt lat="49.95692" lon="1.18735">
        <ele>102</ele>
        <time>2022-06-18T13:39:53+02:00</time>
      </trkpt>
      <trkpt lat="49.95669" lon="1.18733">
        <ele>102.6</ele>
        <time>2022-06-18T13:40:09+02:00</time>
      </trkpt>
      <trkpt lat="49.95649" lon="1.18748">
        <ele>102</ele>
        <time>2022-06-18T13:40:30+02:00</time>
      </trkpt>
      <trkpt lat="49.95626" lon="1.18756">
        <ele>102</ele>
        <time>2022-06-18T13:40:49+02:00</time>
      </trkpt>
      <trkpt lat="49.95603" lon="1.18754">
        <ele>102</ele>
        <time>2022-06-18T13:41:09+02:00</time>
      </trkpt>
      <trkpt lat="49.9558" lon="1.18749">
        <ele>102</ele>
        <time>2022-06-18T13:41:27+02:00</time>
      </trkpt>
      <trkpt lat="49.95558" lon="1.18748">
        <ele>102.1</ele>
        <time>2022-06-18T13:41:46+02:00</time>
      </trkpt>
      <trkpt lat="49.95535" lon="1.18751">
        <ele>102.7</ele>
        <time>2022-06-18T13:42:03+02:00</time>
      </trkpt>
      <trkpt lat="49.95514" lon="1.18763">
        <ele>103</ele>
        <time>2022-06-18T13:42:41+02:00</time>
      </trkpt>
      <trkpt lat="49.95536" lon="1.18756">
        <ele>102.8</ele>
        <time>2022-06-18T13:48:12+02:00</time>
      </trkpt>
      <trkpt lat="49.95559" lon="1.18751">
        <ele>102</ele>
        <time>2022-06-18T13:48:33+02:00</time>
      </trkpt>
      <trkpt lat="49.95581" lon="1.18756">
        <ele>102.2</ele>
        <time>2022-06-18T13:48:55+02:00</time>
      </trkpt>
      <trkpt lat="49.95604" lon="1.18762">
        <ele>102.1</ele>
        <time>2022-06-18T13:49:14+02:00</time>
      </trkpt>
      <trkpt lat="49.95627" lon="1.18765">
        <ele>102</ele>
        <time>2022-06-18T13:49:31+02:00</time>
      </trkpt>
      <trkpt lat="49.95649" lon="1.18756">
        <ele>102.1</ele>
        <time>2022-06-18T13:49:49+02:00</time>
      </trkpt>
      <trkpt lat="49.95671" lon="1.18746">
        <ele>102.1</ele>
        <time>2022-06-18T13:50:13+02:00</time>
      </trkpt>
      <trkpt lat="49.95693" lon="1.18737">
        <ele>102</ele>
        <time>2022-06-18T13:50:58+02:00</time>
      </trkpt>
      <trkpt lat="49.95716" lon="1.1873">
        <ele>102</ele>
        <time>2022-06-18T13:51:17+02:00</time>
      </trkpt>
      <trkpt lat="49.95739" lon="1.18726">
        <ele>102</ele>
        <time>2022-06-18T13:51:36+02:00</time>
      </trkpt>
      <trkpt lat="49.95762" lon="1.18714">
        <ele>102</ele>
        <time>2022-06-18T13:51:55+02:00</time>
      </trkpt>
      <trkpt lat="49.95786" lon="1.1871">
        <ele>102</ele>
        <time>2022-06-18T13:52:12+02:00</time>
      </trkpt>
      <trkpt lat="49.95809" lon="1.18712">
        <ele>102</ele>
        <time>2022-06-18T13:52:31+02:00</time>
      </trkpt>
      <trkpt lat="49.95832" lon="1.18716">
        <ele>102</ele>
        <time>2022-06-18T13:52:52+02:00</time>
      </trkpt>
      <trkpt lat="49.95851" lon="1.18735">
        <ele>102</ele>
        <time>2022-06-18T13:53:14+02:00</time>
      </trkpt>
      <trkpt lat="49.95871" lon="1.18752">
        <ele>102.4</ele>
        <time>2022-06-18T13:53:54+02:00</time>
      </trkpt>
      <trkpt lat="49.95892" lon="1.18769">
        <ele>102.9</ele>
        <time>2022-06-18T13:54:13+02:00</time>
      </trkpt>
      <trkpt lat="49.95914" lon="1.18781">
        <ele>102.1</ele>
        <time>2022-06-18T13:54:32+02:00</time>
      </trkpt>
      <trkpt lat="49.95932" lon="1.18803">
        <ele>102</ele>
        <time>2022-06-18T13:54:54+02:00</time>
      </trkpt>
      <trkpt lat="49.95949" lon="1.18827">
        <ele>102</ele>
        <time>2022-06-18T13:55:13+02:00</time>
      </trkpt>
      <trkpt lat="49.95964" lon="1.18852">
        <ele>101.5</ele>
        <time>2022-06-18T13:55:28+02:00</time>
      </trkpt>
      <trkpt lat="49.9598" lon="1.18879">
        <ele>101.6</ele>
        <time>2022-06-18T13:55:47+02:00</time>
      </trkpt>
      <trkpt lat="49.95999" lon="1.18899">
        <ele>101</ele>
        <time>2022-06-18T13:56:03+02:00</time>
      </trkpt>
      <trkpt lat="49.96037" lon="1.18938">
        <ele>100.2</ele>
        <time>2022-06-18T13:56:37+02:00</time>
      </trkpt>
      <trkpt lat="49.96059" lon="1.18927">
        <ele>100</ele>
        <time>2022-06-18T13:56:57+02:00</time>
      </trkpt>
      <trkpt lat="49.96083" lon="1.18917">
        <ele>100</ele>
        <time>2022-06-18T13:57:15+02:00</time>
      </trkpt>
      <trkpt lat="49.96105" lon="1.18907">
        <ele>100</ele>
        <time>2022-06-18T13:57:35+02:00</time>
      </trkpt>
      <trkpt lat="49.96128" lon="1.18898">
        <ele>99.8</ele>
        <time>2022-06-18T13:57:51+02:00</time>
      </trkpt>
      <trkpt lat="49.96151" lon="1.18891">
        <ele>99.5</ele>
        <time>2022-06-18T13:58:10+02:00</time>
      </trkpt>
      <trkpt lat="49.96174" lon="1.18888">
        <ele>99</ele>
        <time>2022-06-18T13:58:32+02:00</time>
      </trkpt>
      <trkpt lat="49.96193" lon="1.18909">
        <ele>99</ele>
        <time>2022-06-18T13:58:54+02:00</time>
      </trkpt>
      <trkpt lat="49.96213" lon="1.18927">
        <ele>98.9</ele>
        <time>2022-06-18T13:59:13+02:00</time>
      </trkpt>
      <trkpt lat="49.9623" lon="1.1895">
        <ele>99.1</ele>
        <time>2022-06-18T13:59:29+02:00</time>
      </trkpt>
      <trkpt lat="49.9625" lon="1.18967">
        <ele>99.2</ele>
        <time>2022-06-18T13:59:47+02:00</time>
      </trkpt>
      <trkpt lat="49.96272" lon="1.1898">
        <ele>99.8</ele>
        <time>2022-06-18T14:00:08+02:00</time>
      </trkpt>
      <trkpt lat="49.96291" lon="1.19001">
        <ele>100</ele>
        <time>2022-06-18T14:00:29+02:00</time>
      </trkpt>
      <trkpt lat="49.96306" lon="1.19028">
        <ele>100</ele>
        <time>2022-06-18T14:00:45+02:00</time>
      </trkpt>
      <trkpt lat="49.96318" lon="1.1906">
        <ele>99.2</ele>
        <time>2022-06-18T14:01:02+02:00</time>
      </trkpt>
      <trkpt lat="49.96329" lon="1.19092">
        <ele>97.4</ele>
        <time>2022-06-18T14:01:19+02:00</time>
      </trkpt>
      <trkpt lat="49.96339" lon="1.19125">
        <ele>95</ele>
        <time>2022-06-18T14:01:42+02:00</time>
      </trkpt>
      <trkpt lat="49.96359" lon="1.19145">
        <ele>91.5</ele>
        <time>2022-06-18T14:02:09+02:00</time>
      </trkpt>
      <trkpt lat="49.96381" lon="1.19157">
        <ele>88.4</ele>
        <time>2022-06-18T14:02:28+02:00</time>
      </trkpt>
      <trkpt lat="49.96399" lon="1.19178">
        <ele>85.3</ele>
        <time>2022-06-18T14:02:48+02:00</time>
      </trkpt>
      <trkpt lat="49.96412" lon="1.19207">
        <ele>81</ele>
        <time>2022-06-18T14:03:17+02:00</time>
      </trkpt>
      <trkpt lat="49.96432" lon="1.19224">
        <ele>77.8</ele>
        <time>2022-06-18T14:03:38+02:00</time>
      </trkpt>
      <trkpt lat="49.96455" lon="1.19231">
        <ele>78.1</ele>
        <time>2022-06-18T14:03:57+02:00</time>
      </trkpt>
      <trkpt lat="49.96477" lon="1.19241">
        <ele>75.7</ele>
        <time>2022-06-18T14:04:17+02:00</time>
      </trkpt>
      <trkpt lat="49.96499" lon="1.1925">
        <ele>72</ele>
        <time>2022-06-18T14:04:35+02:00</time>
      </trkpt>
      <trkpt lat="49.96519" lon="1.19271">
        <ele>68.7</ele>
        <time>2022-06-18T14:04:57+02:00</time>
      </trkpt>
      <trkpt lat="49.96527" lon="1.19304">
        <ele>63.2</ele>
        <time>2022-06-18T14:05:33+02:00</time>
      </trkpt>
      <trkpt lat="49.96547" lon="1.19322">
        <ele>61</ele>
        <time>2022-06-18T14:06:04+02:00</time>
      </trkpt>
      <trkpt lat="49.96571" lon="1.19333">
        <ele>59.1</ele>
        <time>2022-06-18T14:06:20+02:00</time>
      </trkpt>
      <trkpt lat="49.9659" lon="1.19356">
        <ele>56.6</ele>
        <time>2022-06-18T14:06:37+02:00</time>
      </trkpt>
      <trkpt lat="49.96608" lon="1.19378">
        <ele>53.5</ele>
        <time>2022-06-18T14:06:52+02:00</time>
      </trkpt>
      <trkpt lat="49.9663" lon="1.19392">
        <ele>50.9</ele>
        <time>2022-06-18T14:07:28+02:00</time>
      </trkpt>
      <trkpt lat="49.96653" lon="1.19402">
        <ele>49.6</ele>
        <time>2022-06-18T14:07:50+02:00</time>
      </trkpt>
      <trkpt lat="49.9663" lon="1.19392">
        <ele>50.9</ele>
        <time>2022-06-18T14:08:30+02:00</time>
      </trkpt>
    </trkseg>
  </trk>
</gpx>